sensor_id;sensor_type;location;lat;lon;timestamp;P1;P2;P0
66195;PMS7003;53000;45.182;5.736;2023-09-19T00:00:19;3.00;2.33;2.00
66195;PMS7003;53000;45.182;5.736;2023-09-19T00:02:46;3.00;2.00;2.00
66195;PMS7003;53000;45.182;5.736;2023-09-19T00:05:16;4.00;3.00;2.67
66195;PMS7003;53000;45.182;5.736;2023-09-19T00:07:42;4.67;3.00;2.33
66195;PMS7003;53000;45.182;5.736;2023-09-19T00:10:07;2.67;2.67;2.00
66195;PMS7003;53000;45.182;5.736;2023-09-19T00:12:34;3.67;2.00;2.00
66195;PMS7003;53000;45.182;5.736;2023-09-19T00:15:00;6.00;3.00;2.00
66195;PMS7003;53000;45.182;5.736;2023-09-19T00:17:26;3.00;2.67;2.33
66195;PMS7003;53000;45.182;5.736;2023-09-19T00:19:55;3.00;2.67;2.33
66195;PMS7003;53000;45.182;5.736;2023-09-19T00:22:20;2.00;2.00;2.00
66195;PMS7003;53000;45.182;5.736;2023-09-19T00:24:46;3.00;3.00;2.33
66195;PMS7003;53000;45.182;5.736;2023-09-19T00:27:11;3.33;2.67;2.00
66195;PMS7003;53000;45.182;5.736;2023-09-19T00:29:36;2.00;2.00;2.00
66195;PMS7003;53000;45.182;5.736;2023-09-19T00:32:02;0.33;0.33;0.33
66195;PMS7003;53000;45.182;5.736;2023-09-19T00:34:28;4.67;3.33;3.00
66195;PMS7003;53000;45.182;5.736;2023-09-19T00:36:55;4.00;4.00;3.00
66195;PMS7003;53000;45.182;5.736;2023-09-19T00:39:20;4.33;4.00;3.00
66195;PMS7003;53000;45.182;5.736;2023-09-19T00:41:46;4.33;4.33;3.33
66195;PMS7003;53000;45.182;5.736;2023-09-19T00:44:12;5.00;4.00;3.00
66195;PMS7003;53000;45.182;5.736;2023-09-19T00:46:38;5.33;4.67;4.00
66195;PMS7003;53000;45.182;5.736;2023-09-19T00:49:03;5.33;4.00;3.67
66195;PMS7003;53000;45.182;5.736;2023-09-19T00:51:28;6.67;4.67;4.00
66195;PMS7003;53000;45.182;5.736;2023-09-19T00:53:54;5.67;5.00;4.00
66195;PMS7003;53000;45.182;5.736;2023-09-19T00:56:20;8.00;5.67;5.00
66195;PMS7003;53000;45.182;5.736;2023-09-19T00:58:46;5.00;5.00;4.00
66195;PMS7003;53000;45.182;5.736;2023-09-19T01:01:13;7.67;6.33;4.67
66195;PMS7003;53000;45.182;5.736;2023-09-19T01:03:40;8.00;6.00;4.00
66195;PMS7003;53000;45.182;5.736;2023-09-19T01:06:06;7.33;6.33;4.00
66195;PMS7003;53000;45.182;5.736;2023-09-19T01:08:32;9.33;8.33;6.67
66195;PMS7003;53000;45.182;5.736;2023-09-19T01:11:03;10.00;9.00;8.00
66195;PMS7003;53000;45.182;5.736;2023-09-19T01:19:29;6.00;6.00;5.00
66195;PMS7003;53000;45.182;5.736;2023-09-19T01:22:07;6.33;6.00;5.67
66195;PMS7003;53000;45.182;5.736;2023-09-19T01:29:49;5.67;5.00;4.00
66195;PMS7003;53000;45.182;5.736;2023-09-19T01:32:16;7.00;7.00;5.33
66195;PMS7003;53000;45.182;5.736;2023-09-19T01:34:47;5.67;5.67;4.00
66195;PMS7003;53000;45.182;5.736;2023-09-19T01:37:18;5.00;5.00;4.00
66195;PMS7003;53000;45.182;5.736;2023-09-19T01:39:48;5.67;5.67;4.67
66195;PMS7003;53000;45.182;5.736;2023-09-19T01:47:48;4.00;4.00;2.33
66195;PMS7003;53000;45.182;5.736;2023-09-19T01:50:33;5.67;5.00;4.00
66195;PMS7003;53000;45.182;5.736;2023-09-19T01:55:55;7.33;5.00;4.00
66195;PMS7003;53000;45.182;5.736;2023-09-19T02:01:00;5.00;5.00;4.00
66195;PMS7003;53000;45.182;5.736;2023-09-19T02:03:26;5.33;5.33;4.33
66195;PMS7003;53000;45.182;5.736;2023-09-19T02:05:53;4.00;4.00;4.00
66195;PMS7003;53000;45.182;5.736;2023-09-19T02:08:20;5.33;5.33;4.67
66195;PMS7003;53000;45.182;5.736;2023-09-19T02:10:48;5.67;4.67;3.00
66195;PMS7003;53000;45.182;5.736;2023-09-19T02:13:17;6.00;6.00;4.67
66195;PMS7003;53000;45.182;5.736;2023-09-19T02:15:44;5.00;5.00;4.00
66195;PMS7003;53000;45.182;5.736;2023-09-19T02:18:10;4.33;4.33;4.00
66195;PMS7003;53000;45.182;5.736;2023-09-19T02:20:36;7.00;5.00;4.67
66195;PMS7003;53000;45.182;5.736;2023-09-19T02:23:03;7.67;5.67;4.67
66195;PMS7003;53000;45.182;5.736;2023-09-19T02:25:28;5.67;5.67;4.33
66195;PMS7003;53000;45.182;5.736;2023-09-19T02:27:54;7.00;5.67;4.00
66195;PMS7003;53000;45.182;5.736;2023-09-19T02:30:19;5.33;5.33;4.00
66195;PMS7003;53000;45.182;5.736;2023-09-19T02:32:48;4.00;4.00;4.00
66195;PMS7003;53000;45.182;5.736;2023-09-19T02:35:14;5.00;5.00;4.00
66195;PMS7003;53000;45.182;5.736;2023-09-19T02:37:39;4.00;4.00;3.00
66195;PMS7003;53000;45.182;5.736;2023-09-19T02:40:05;7.33;6.00;4.00
66195;PMS7003;53000;45.182;5.736;2023-09-19T02:42:43;6.67;6.00;4.67
66195;PMS7003;53000;45.182;5.736;2023-09-19T02:45:13;6.00;5.67;5.00
66195;PMS7003;53000;45.182;5.736;2023-09-19T02:47:42;8.00;5.33;4.00
66195;PMS7003;53000;45.182;5.736;2023-09-19T02:50:08;6.00;5.33;4.33
66195;PMS7003;53000;45.182;5.736;2023-09-19T02:52:37;5.33;5.00;4.00
66195;PMS7003;53000;45.182;5.736;2023-09-19T02:55:02;6.00;6.00;4.67
66195;PMS7003;53000;45.182;5.736;2023-09-19T02:57:29;7.67;7.00;5.00
66195;PMS7003;53000;45.182;5.736;2023-09-19T02:59:58;4.00;3.67;2.67
66195;PMS7003;53000;45.182;5.736;2023-09-19T03:02:25;6.00;5.00;5.00
66195;PMS7003;53000;45.182;5.736;2023-09-19T03:04:52;5.67;4.67;3.00
66195;PMS7003;53000;45.182;5.736;2023-09-19T03:07:18;3.67;2.00;0.00
66195;PMS7003;53000;45.182;5.736;2023-09-19T03:09:43;5.33;5.33;4.00
66195;PMS7003;53000;45.182;5.736;2023-09-19T03:12:10;7.00;6.00;5.00
66195;PMS7003;53000;45.182;5.736;2023-09-19T03:14:35;5.00;4.33;3.00
66195;PMS7003;53000;45.182;5.736;2023-09-19T03:17:01;6.00;5.33;5.00
66195;PMS7003;53000;45.182;5.736;2023-09-19T03:19:29;6.00;5.00;4.00
66195;PMS7003;53000;45.182;5.736;2023-09-19T03:21:55;6.00;6.00;4.33
66195;PMS7003;53000;45.182;5.736;2023-09-19T03:24:22;6.00;5.67;5.00
66195;PMS7003;53000;45.182;5.736;2023-09-19T03:26:48;5.33;5.00;4.00
66195;PMS7003;53000;45.182;5.736;2023-09-19T03:29:14;6.00;5.67;4.33
66195;PMS7003;53000;45.182;5.736;2023-09-19T03:31:40;5.00;4.33;4.00
66195;PMS7003;53000;45.182;5.736;2023-09-19T03:34:06;4.00;4.00;3.33
66195;PMS7003;53000;45.182;5.736;2023-09-19T03:36:31;5.33;5.33;4.67
66195;PMS7003;53000;45.182;5.736;2023-09-19T03:38:59;5.67;5.67;5.00
66195;PMS7003;53000;45.182;5.736;2023-09-19T03:41:24;6.67;6.00;5.00
66195;PMS7003;53000;45.182;5.736;2023-09-19T03:43:50;7.00;6.00;4.00
66195;PMS7003;53000;45.182;5.736;2023-09-19T03:46:15;5.00;4.67;4.00
66195;PMS7003;53000;45.182;5.736;2023-09-19T03:48:40;5.67;5.67;4.33
66195;PMS7003;53000;45.182;5.736;2023-09-19T03:51:06;7.00;5.00;5.00
66195;PMS7003;53000;45.182;5.736;2023-09-19T03:53:31;8.33;6.67;5.67
66195;PMS7003;53000;45.182;5.736;2023-09-19T03:55:56;9.00;7.00;6.00
66195;PMS7003;53000;45.182;5.736;2023-09-19T03:58:22;6.33;6.33;5.00
66195;PMS7003;53000;45.182;5.736;2023-09-19T04:00:48;7.00;7.00;5.00
66195;PMS7003;53000;45.182;5.736;2023-09-19T04:03:14;5.33;5.00;4.00
66195;PMS7003;53000;45.182;5.736;2023-09-19T04:05:45;7.00;5.00;4.00
66195;PMS7003;53000;45.182;5.736;2023-09-19T04:08:11;7.00;7.00;6.00
66195;PMS7003;53000;45.182;5.736;2023-09-19T04:10:37;8.00;7.00;5.67
66195;PMS7003;53000;45.182;5.736;2023-09-19T04:13:02;6.33;6.00;5.33
66195;PMS7003;53000;45.182;5.736;2023-09-19T04:15:29;6.67;5.67;4.67
66195;PMS7003;53000;45.182;5.736;2023-09-19T04:17:54;8.00;5.00;4.00
66195;PMS7003;53000;45.182;5.736;2023-09-19T04:20:20;10.00;9.00;7.67
66195;PMS7003;53000;45.182;5.736;2023-09-19T04:22:47;8.67;6.00;4.67
66195;PMS7003;53000;45.182;5.736;2023-09-19T04:25:12;5.67;5.33;4.67
66195;PMS7003;53000;45.182;5.736;2023-09-19T04:27:38;7.00;5.00;4.00
66195;PMS7003;53000;45.182;5.736;2023-09-19T04:30:04;6.33;6.33;5.33
66195;PMS7003;53000;45.182;5.736;2023-09-19T04:32:36;6.67;4.33;3.00
66195;PMS7003;53000;45.182;5.736;2023-09-19T04:35:09;4.67;4.67;4.00
66195;PMS7003;53000;45.182;5.736;2023-09-19T04:37:36;3.33;3.33;3.00
66195;PMS7003;53000;45.182;5.736;2023-09-19T04:40:03;6.67;6.00;6.00
66195;PMS7003;53000;45.182;5.736;2023-09-19T04:42:31;7.00;6.00;4.33
66195;PMS7003;53000;45.182;5.736;2023-09-19T04:44:56;6.00;6.00;4.00
66195;PMS7003;53000;45.182;5.736;2023-09-19T04:47:22;7.00;6.67;4.00
66195;PMS7003;53000;45.182;5.736;2023-09-19T04:49:47;6.00;6.00;5.00
66195;PMS7003;53000;45.182;5.736;2023-09-19T04:52:13;4.67;4.67;4.00
66195;PMS7003;53000;45.182;5.736;2023-09-19T04:54:40;6.00;5.67;4.00
66195;PMS7003;53000;45.182;5.736;2023-09-19T04:57:06;6.33;5.33;3.67
66195;PMS7003;53000;45.182;5.736;2023-09-19T04:59:32;5.33;5.33;4.00
66195;PMS7003;53000;45.182;5.736;2023-09-19T05:01:57;4.67;4.67;4.00
66195;PMS7003;53000;45.182;5.736;2023-09-19T05:04:23;6.67;5.67;4.67
66195;PMS7003;53000;45.182;5.736;2023-09-19T05:06:49;7.67;6.00;5.00
66195;PMS7003;53000;45.182;5.736;2023-09-19T05:09:14;7.00;6.00;5.00
66195;PMS7003;53000;45.182;5.736;2023-09-19T05:11:40;10.00;7.00;4.00
66195;PMS7003;53000;45.182;5.736;2023-09-19T05:14:05;6.33;4.67;4.33
66195;PMS7003;53000;45.182;5.736;2023-09-19T05:16:31;5.33;5.00;4.33
66195;PMS7003;53000;45.182;5.736;2023-09-19T05:18:56;3.00;3.00;1.00
66195;PMS7003;53000;45.182;5.736;2023-09-19T05:21:24;11.67;10.67;8.00
66195;PMS7003;53000;45.182;5.736;2023-09-19T05:23:53;11.67;9.67;7.67
66195;PMS7003;53000;45.182;5.736;2023-09-19T05:26:19;10.00;8.67;7.00
66195;PMS7003;53000;45.182;5.736;2023-09-19T05:28:45;10.00;8.00;6.00
66195;PMS7003;53000;45.182;5.736;2023-09-19T05:31:13;8.00;7.00;5.33
66195;PMS7003;53000;45.182;5.736;2023-09-19T05:33:39;8.33;8.00;6.00
66195;PMS7003;53000;45.182;5.736;2023-09-19T05:36:04;4.33;4.33;3.33
66195;PMS7003;53000;45.182;5.736;2023-09-19T05:38:30;7.00;6.00;5.00
66195;PMS7003;53000;45.182;5.736;2023-09-19T05:40:55;5.33;4.00;3.67
66195;PMS7003;53000;45.182;5.736;2023-09-19T05:43:21;4.00;3.00;3.00
66195;PMS7003;53000;45.182;5.736;2023-09-19T05:45:47;4.00;4.00;3.67
66195;PMS7003;53000;45.182;5.736;2023-09-19T05:48:13;4.00;4.00;3.33
66195;PMS7003;53000;45.182;5.736;2023-09-19T05:50:41;2.00;2.00;2.00
66195;PMS7003;53000;45.182;5.736;2023-09-19T05:53:07;4.00;3.00;3.00
66195;PMS7003;53000;45.182;5.736;2023-09-19T05:55:33;4.00;4.00;3.00
66195;PMS7003;53000;45.182;5.736;2023-09-19T05:57:58;6.00;6.00;5.00
66195;PMS7003;53000;45.182;5.736;2023-09-19T06:00:24;7.67;7.00;6.00
66195;PMS7003;53000;45.182;5.736;2023-09-19T06:02:52;9.00;6.67;5.67
66195;PMS7003;53000;45.182;5.736;2023-09-19T06:05:18;7.00;7.00;6.00
66195;PMS7003;53000;45.182;5.736;2023-09-19T06:07:44;7.00;7.00;5.00
66195;PMS7003;53000;45.182;5.736;2023-09-19T06:10:10;8.67;7.67;6.33
66195;PMS7003;53000;45.182;5.736;2023-09-19T06:12:41;7.33;5.67;5.00
66195;PMS7003;53000;45.182;5.736;2023-09-19T06:15:09;6.00;6.00;5.00
66195;PMS7003;53000;45.182;5.736;2023-09-19T06:17:39;7.00;6.00;4.33
66195;PMS7003;53000;45.182;5.736;2023-09-19T06:20:05;9.67;7.00;5.67
66195;PMS7003;53000;45.182;5.736;2023-09-19T06:22:43;9.00;7.67;6.00
66195;PMS7003;53000;45.182;5.736;2023-09-19T06:25:10;7.33;6.33;5.00
66195;PMS7003;53000;45.182;5.736;2023-09-19T06:27:39;6.00;6.00;5.00
66195;PMS7003;53000;45.182;5.736;2023-09-19T06:30:09;6.00;6.00;5.00
66195;PMS7003;53000;45.182;5.736;2023-09-19T06:32:36;7.00;7.00;4.67
66195;PMS7003;53000;45.182;5.736;2023-09-19T06:35:02;6.00;5.00;5.00
66195;PMS7003;53000;45.182;5.736;2023-09-19T06:37:32;6.33;5.67;4.67
66195;PMS7003;53000;45.182;5.736;2023-09-19T06:39:59;5.00;4.33;4.00
66195;PMS7003;53000;45.182;5.736;2023-09-19T06:42:24;6.00;5.00;4.33
66195;PMS7003;53000;45.182;5.736;2023-09-19T06:44:50;5.67;5.67;4.00
66195;PMS7003;53000;45.182;5.736;2023-09-19T06:47:16;6.00;5.00;4.00
66195;PMS7003;53000;45.182;5.736;2023-09-19T06:49:42;6.33;6.33;5.67
66195;PMS7003;53000;45.182;5.736;2023-09-19T06:52:10;5.00;4.33;3.33
66195;PMS7003;53000;45.182;5.736;2023-09-19T06:54:36;7.33;6.33;5.00
66195;PMS7003;53000;45.182;5.736;2023-09-19T06:57:02;5.67;5.00;5.00
66195;PMS7003;53000;45.182;5.736;2023-09-19T06:59:28;5.33;5.33;3.67
66195;PMS7003;53000;45.182;5.736;2023-09-19T07:01:54;7.00;5.00;4.00
66195;PMS7003;53000;45.182;5.736;2023-09-19T07:04:19;7.00;5.00;4.00
66195;PMS7003;53000;45.182;5.736;2023-09-19T07:06:52;7.33;5.33;4.00
66195;PMS7003;53000;45.182;5.736;2023-09-19T07:09:17;6.00;5.67;4.00
66195;PMS7003;53000;45.182;5.736;2023-09-19T07:11:44;6.67;5.33;4.33
66195;PMS7003;53000;45.182;5.736;2023-09-19T07:14:10;8.00;8.00;6.67
66195;PMS7003;53000;45.182;5.736;2023-09-19T07:16:36;3.00;3.00;2.67
66195;PMS7003;53000;45.182;5.736;2023-09-19T07:19:03;6.00;5.00;4.33
66195;PMS7003;53000;45.182;5.736;2023-09-19T07:21:29;5.00;5.00;4.00
66195;PMS7003;53000;45.182;5.736;2023-09-19T07:23:54;7.00;5.00;4.33
66195;PMS7003;53000;45.182;5.736;2023-09-19T07:26:20;2.67;2.67;2.00
66195;PMS7003;53000;45.182;5.736;2023-09-19T07:28:45;5.00;5.00;4.00
66195;PMS7003;53000;45.182;5.736;2023-09-19T07:31:10;5.00;4.00;3.33
66195;PMS7003;53000;45.182;5.736;2023-09-19T07:33:37;4.67;4.67;4.00
66195;PMS7003;53000;45.182;5.736;2023-09-19T07:36:09;4.67;4.67;4.00
66195;PMS7003;53000;45.182;5.736;2023-09-19T07:38:35;6.00;6.00;5.00
66195;PMS7003;53000;45.182;5.736;2023-09-19T07:41:01;3.33;3.00;3.00
66195;PMS7003;53000;45.182;5.736;2023-09-19T07:43:27;6.00;4.00;4.00
66195;PMS7003;53000;45.182;5.736;2023-09-19T07:45:52;3.00;3.00;3.00
66195;PMS7003;53000;45.182;5.736;2023-09-19T07:48:18;4.00;3.33;3.00
66195;PMS7003;53000;45.182;5.736;2023-09-19T07:50:43;4.00;4.00;3.00
66195;PMS7003;53000;45.182;5.736;2023-09-19T07:53:09;4.00;4.00;4.00
66195;PMS7003;53000;45.182;5.736;2023-09-19T07:55:34;4.33;4.33;4.00
66195;PMS7003;53000;45.182;5.736;2023-09-19T07:57:59;4.00;4.00;3.00
66195;PMS7003;53000;45.182;5.736;2023-09-19T08:00:25;4.00;4.00;3.00
66195;PMS7003;53000;45.182;5.736;2023-09-19T08:02:51;4.00;4.00;4.00
66195;PMS7003;53000;45.182;5.736;2023-09-19T08:05:19;5.00;5.00;3.00
66195;PMS7003;53000;45.182;5.736;2023-09-19T08:07:45;4.00;3.00;2.00
66195;PMS7003;53000;45.182;5.736;2023-09-19T08:10:13;3.00;3.00;3.00
66195;PMS7003;53000;45.182;5.736;2023-09-19T08:12:41;5.00;5.00;5.00
66195;PMS7003;53000;45.182;5.736;2023-09-19T08:15:13;5.00;5.00;4.33
66195;PMS7003;53000;45.182;5.736;2023-09-19T08:17:40;4.67;4.00;4.00
66195;PMS7003;53000;45.182;5.736;2023-09-19T08:20:06;4.67;4.67;3.00
66195;PMS7003;53000;45.182;5.736;2023-09-19T08:22:32;6.00;5.00;4.00
66195;PMS7003;53000;45.182;5.736;2023-09-19T08:24:57;4.67;4.00;3.00
66195;PMS7003;53000;45.182;5.736;2023-09-19T08:27:23;6.33;5.00;4.00
66195;PMS7003;53000;45.182;5.736;2023-09-19T08:29:51;6.00;5.33;4.67
66195;PMS7003;53000;45.182;5.736;2023-09-19T08:32:17;5.00;4.00;4.00
66195;PMS7003;53000;45.182;5.736;2023-09-19T08:34:48;7.00;6.00;4.33
66195;PMS7003;53000;45.182;5.736;2023-09-19T08:37:14;5.33;5.33;5.00
66195;PMS7003;53000;45.182;5.736;2023-09-19T08:39:39;5.00;5.00;4.00
66195;PMS7003;53000;45.182;5.736;2023-09-19T08:42:04;6.00;6.00;5.00
66195;PMS7003;53000;45.182;5.736;2023-09-19T08:44:30;4.33;4.33;4.00
66195;PMS7003;53000;45.182;5.736;2023-09-19T08:47:11;7.33;7.00;5.67
66195;PMS7003;53000;45.182;5.736;2023-09-19T08:52:10;6.00;5.00;4.00
66195;PMS7003;53000;45.182;5.736;2023-09-19T08:54:48;7.00;7.00;6.00
66195;PMS7003;53000;45.182;5.736;2023-09-19T08:57:18;6.00;5.00;4.00
66195;PMS7003;53000;45.182;5.736;2023-09-19T08:59:47;2.67;2.67;2.00
66195;PMS7003;53000;45.182;5.736;2023-09-19T09:02:16;4.00;4.00;4.00
66195;PMS7003;53000;45.182;5.736;2023-09-19T09:04:46;5.00;5.00;4.33
66195;PMS7003;53000;45.182;5.736;2023-09-19T09:07:14;4.00;4.00;3.00
66195;PMS7003;53000;45.182;5.736;2023-09-19T09:09:41;4.33;4.33;4.00
66195;PMS7003;53000;45.182;5.736;2023-09-19T09:12:13;6.00;5.00;4.67
66195;PMS7003;53000;45.182;5.736;2023-09-19T09:14:40;7.00;6.00;5.00
66195;PMS7003;53000;45.182;5.736;2023-09-19T09:17:10;7.00;7.00;5.33
66195;PMS7003;53000;45.182;5.736;2023-09-19T09:19:36;8.00;6.00;4.33
66195;PMS7003;53000;45.182;5.736;2023-09-19T09:22:08;6.00;5.00;4.00
66195;PMS7003;53000;45.182;5.736;2023-09-19T09:24:34;7.00;7.00;6.67
66195;PMS7003;53000;45.182;5.736;2023-09-19T09:27:05;6.00;6.00;4.00
66195;PMS7003;53000;45.182;5.736;2023-09-19T09:29:45;5.33;4.33;3.33
66195;PMS7003;53000;45.182;5.736;2023-09-19T09:32:20;5.67;5.67;5.00
66195;PMS7003;53000;45.182;5.736;2023-09-19T09:34:49;6.33;6.33;5.00
66195;PMS7003;53000;45.182;5.736;2023-09-19T09:37:23;7.67;6.00;5.33
66195;PMS7003;53000;45.182;5.736;2023-09-19T09:39:55;5.00;4.33;4.00
66195;PMS7003;53000;45.182;5.736;2023-09-19T09:42:33;6.00;6.00;5.00
66195;PMS7003;53000;45.182;5.736;2023-09-19T09:48:05;6.00;5.00;4.00
66195;PMS7003;53000;45.182;5.736;2023-09-19T09:50:46;6.00;5.75;5.00
66195;PMS7003;53000;45.182;5.736;2023-09-19T09:53:22;4.00;4.00;3.67
66195;PMS7003;53000;45.182;5.736;2023-09-19T09:56:00;5.75;5.00;4.00
66195;PMS7003;53000;45.182;5.736;2023-09-19T09:58:25;6.00;6.00;4.00
66195;PMS7003;53000;45.182;5.736;2023-09-19T10:00:54;3.00;3.00;3.00
66195;PMS7003;53000;45.182;5.736;2023-09-19T10:03:34;6.50;6.50;4.50
66195;PMS7003;53000;45.182;5.736;2023-09-19T10:06:05;4.50;4.50;3.50
66195;PMS7003;53000;45.182;5.736;2023-09-19T10:08:36;5.25;5.00;4.00
66195;PMS7003;53000;45.182;5.736;2023-09-19T10:11:12;6.50;6.00;5.00
66195;PMS7003;53000;45.182;5.736;2023-09-19T10:13:40;4.50;4.50;4.00
66195;PMS7003;53000;45.182;5.736;2023-09-19T10:16:07;5.00;4.00;4.00
66195;PMS7003;53000;45.182;5.736;2023-09-19T10:18:36;3.50;3.50;2.75
66195;PMS7003;53000;45.182;5.736;2023-09-19T10:21:04;4.00;4.00;3.00
66195;PMS7003;53000;45.182;5.736;2023-09-19T10:23:31;3.50;3.50;3.00
66195;PMS7003;53000;45.182;5.736;2023-09-19T10:25:59;3.25;3.25;3.00
66195;PMS7003;53000;45.182;5.736;2023-09-19T10:28:27;3.25;3.25;2.25
66195;PMS7003;53000;45.182;5.736;2023-09-19T10:30:54;4.50;4.50;4.00
66195;PMS7003;53000;45.182;5.736;2023-09-19T10:33:22;4.00;4.00;3.00
66195;PMS7003;53000;45.182;5.736;2023-09-19T10:35:52;4.00;4.00;3.00
66195;PMS7003;53000;45.182;5.736;2023-09-19T10:38:23;5.25;4.00;4.00
66195;PMS7003;53000;45.182;5.736;2023-09-19T10:40:53;3.75;3.75;3.00
66195;PMS7003;53000;45.182;5.736;2023-09-19T10:43:21;5.00;4.00;3.00
66195;PMS7003;53000;45.182;5.736;2023-09-19T10:45:50;6.00;4.25;4.00
66195;PMS7003;53000;45.182;5.736;2023-09-19T10:48:18;6.00;4.75;4.00
66195;PMS7003;53000;45.182;5.736;2023-09-19T10:53:20;5.00;5.00;3.25
66195;PMS7003;53000;45.182;5.736;2023-09-19T10:55:48;4.00;4.00;3.00
66195;PMS7003;53000;45.182;5.736;2023-09-19T10:58:27;5.00;4.00;3.00
66195;PMS7003;53000;45.182;5.736;2023-09-19T11:00:59;3.50;3.50;3.00
66195;PMS7003;53000;45.182;5.736;2023-09-19T11:03:31;4.00;4.00;3.00
66195;PMS7003;53000;45.182;5.736;2023-09-19T11:11:44;4.00;4.00;3.00
66195;PMS7003;53000;45.182;5.736;2023-09-19T11:30:31;3.25;3.25;3.00
66195;PMS7003;53000;45.182;5.736;2023-09-19T11:36:09;3.00;3.00;2.50
66195;PMS7003;53000;45.182;5.736;2023-09-19T11:43:51;3.00;2.00;2.00
66195;PMS7003;53000;45.182;5.736;2023-09-19T11:46:48;4.75;4.00;3.00
66195;PMS7003;53000;45.182;5.736;2023-09-19T11:49:17;2.00;2.00;1.00
66195;PMS7003;53000;45.182;5.736;2023-09-19T11:51:48;4.00;3.25;3.00
66195;PMS7003;53000;45.182;5.736;2023-09-19T11:54:16;3.00;2.00;2.00
66195;PMS7003;53000;45.182;5.736;2023-09-19T11:56:48;3.00;3.00;2.00
66195;PMS7003;53000;45.182;5.736;2023-09-19T12:01:57;2.00;2.00;2.00
66195;PMS7003;53000;45.182;5.736;2023-09-19T12:04:40;3.75;2.00;2.00
66195;PMS7003;53000;45.182;5.736;2023-09-19T12:07:12;3.75;3.75;3.00
66195;PMS7003;53000;45.182;5.736;2023-09-19T12:12:25;2.75;2.75;2.50
66195;PMS7003;53000;45.182;5.736;2023-09-19T12:14:55;3.50;2.75;2.75
66195;PMS7003;53000;45.182;5.736;2023-09-19T12:17:37;2.75;2.00;2.00
66195;PMS7003;53000;45.182;5.736;2023-09-19T12:20:06;3.00;1.50;1.00
66195;PMS7003;53000;45.182;5.736;2023-09-19T12:22:47;1.75;1.75;1.75
66195;PMS7003;53000;45.182;5.736;2023-09-19T12:25:14;2.25;1.00;0.75
66195;PMS7003;53000;45.182;5.736;2023-09-19T12:27:42;3.00;2.50;2.25
66195;PMS7003;53000;45.182;5.736;2023-09-19T12:30:21;1.25;1.25;1.25
66195;PMS7003;53000;45.182;5.736;2023-09-19T12:32:53;1.50;1.50;1.00
66195;PMS7003;53000;45.182;5.736;2023-09-19T12:35:28;3.00;1.25;1.00
66195;PMS7003;53000;45.182;5.736;2023-09-19T12:37:55;2.50;2.50;1.75
66195;PMS7003;53000;45.182;5.736;2023-09-19T12:40:21;2.00;2.00;1.50
66195;PMS7003;53000;45.182;5.736;2023-09-19T12:42:52;1.00;1.00;1.00
66195;PMS7003;53000;45.182;5.736;2023-09-19T12:45:23;1.00;1.00;1.00
66195;PMS7003;53000;45.182;5.736;2023-09-19T12:51:04;1.25;1.25;1.00
66195;PMS7003;53000;45.182;5.736;2023-09-19T12:53:37;2.00;2.00;1.00
66195;PMS7003;53000;45.182;5.736;2023-09-19T12:56:08;0.00;0.00;0.00
66195;PMS7003;53000;45.182;5.736;2023-09-19T12:58:51;0.00;0.00;0.00
66195;PMS7003;53000;45.182;5.736;2023-09-19T13:01:20;0.00;0.00;0.00
66195;PMS7003;53000;45.182;5.736;2023-09-19T13:06:43;0.00;0.00;0.00
66195;PMS7003;53000;45.182;5.736;2023-09-19T13:09:09;0.67;0.67;0.00
66195;PMS7003;53000;45.182;5.736;2023-09-19T13:11:36;0.00;0.00;0.00
66195;PMS7003;53000;45.182;5.736;2023-09-19T13:25:07;0.00;0.00;0.00
66195;PMS7003;53000;45.182;5.736;2023-09-19T13:27:38;0.00;0.00;0.00
66195;PMS7003;53000;45.182;5.736;2023-09-19T13:30:05;0.00;0.00;0.00
66195;PMS7003;53000;45.182;5.736;2023-09-19T13:32:31;0.00;0.00;0.00
66195;PMS7003;53000;45.182;5.736;2023-09-19T13:34:58;1.00;1.00;0.50
66195;PMS7003;53000;45.182;5.736;2023-09-19T13:37:23;0.00;0.00;0.00
66195;PMS7003;53000;45.182;5.736;2023-09-19T13:39:48;0.00;0.00;0.00
66195;PMS7003;53000;45.182;5.736;2023-09-19T13:42:14;0.00;0.00;0.00
66195;PMS7003;53000;45.182;5.736;2023-09-19T13:44:41;0.00;0.00;0.00
66195;PMS7003;53000;45.182;5.736;2023-09-19T13:47:06;0.00;0.00;0.00
66195;PMS7003;53000;45.182;5.736;2023-09-19T13:49:34;0.33;0.33;0.00
66195;PMS7003;53000;45.182;5.736;2023-09-19T13:52:00;1.00;0.67;0.67
66195;PMS7003;53000;45.182;5.736;2023-09-19T13:54:28;1.00;0.00;0.00
66195;PMS7003;53000;45.182;5.736;2023-09-19T13:56:54;0.00;0.00;0.00
66195;PMS7003;53000;45.182;5.736;2023-09-19T13:59:19;0.00;0.00;0.00
66195;PMS7003;53000;45.182;5.736;2023-09-19T14:01:46;0.75;0.25;0.25
66195;PMS7003;53000;45.182;5.736;2023-09-19T14:04:11;1.00;1.00;0.00
66195;PMS7003;53000;45.182;5.736;2023-09-19T14:06:36;0.00;0.00;0.00
66195;PMS7003;53000;45.182;5.736;2023-09-19T14:09:02;0.00;0.00;0.00
66195;PMS7003;53000;45.182;5.736;2023-09-19T14:11:28;0.75;0.75;0.00
66195;PMS7003;53000;45.182;5.736;2023-09-19T14:13:54;0.50;0.50;0.50
66195;PMS7003;53000;45.182;5.736;2023-09-19T14:16:19;0.25;0.00;0.00
66195;PMS7003;53000;45.182;5.736;2023-09-19T14:18:47;2.50;0.00;0.00
66195;PMS7003;53000;45.182;5.736;2023-09-19T14:21:13;0.75;0.75;0.75
66195;PMS7003;53000;45.182;5.736;2023-09-19T14:23:39;0.00;0.00;0.00
66195;PMS7003;53000;45.182;5.736;2023-09-19T14:26:07;0.00;0.00;0.00
66195;PMS7003;53000;45.182;5.736;2023-09-19T14:28:33;0.25;0.25;0.00
66195;PMS7003;53000;45.182;5.736;2023-09-19T14:31:05;2.00;0.33;0.00
66195;PMS7003;53000;45.182;5.736;2023-09-19T14:33:32;1.00;1.00;1.00
66195;PMS7003;53000;45.182;5.736;2023-09-19T14:35:57;0.00;0.00;0.00
66195;PMS7003;53000;45.182;5.736;2023-09-19T14:38:22;1.00;1.00;0.33
66195;PMS7003;53000;45.182;5.736;2023-09-19T14:40:48;0.00;0.00;0.00
66195;PMS7003;53000;45.182;5.736;2023-09-19T14:43:15;1.00;0.00;0.00
66195;PMS7003;53000;45.182;5.736;2023-09-19T14:45:40;1.50;1.50;1.50
66195;PMS7003;53000;45.182;5.736;2023-09-19T14:48:06;1.75;1.50;1.50
66195;PMS7003;53000;45.182;5.736;2023-09-19T14:50:32;0.67;0.67;0.00
66195;PMS7003;53000;45.182;5.736;2023-09-19T14:52:58;0.67;0.67;0.33
66195;PMS7003;53000;45.182;5.736;2023-09-19T14:55:26;0.00;0.00;0.00
66195;PMS7003;53000;45.182;5.736;2023-09-19T14:57:54;0.67;0.00;0.00
66195;PMS7003;53000;45.182;5.736;2023-09-19T15:00:21;0.00;0.00;0.00
66195;PMS7003;53000;45.182;5.736;2023-09-19T15:02:48;2.33;0.00;0.00
66195;PMS7003;53000;45.182;5.736;2023-09-19T15:05:15;0.00;0.00;0.00
66195;PMS7003;53000;45.182;5.736;2023-09-19T15:07:40;0.33;0.33;0.33
66195;PMS7003;53000;45.182;5.736;2023-09-19T15:10:06;1.00;1.00;1.00
66195;PMS7003;53000;45.182;5.736;2023-09-19T15:12:34;1.33;1.33;0.67
66195;PMS7003;53000;45.182;5.736;2023-09-19T15:15:03;0.67;0.67;0.33
66195;PMS7003;53000;45.182;5.736;2023-09-19T15:17:33;0.00;0.00;0.00
66195;PMS7003;53000;45.182;5.736;2023-09-19T15:19:58;1.00;1.00;1.00
66195;PMS7003;53000;45.182;5.736;2023-09-19T15:22:24;1.00;1.00;0.67
66195;PMS7003;53000;45.182;5.736;2023-09-19T15:24:50;2.00;2.00;1.00
66195;PMS7003;53000;45.182;5.736;2023-09-19T15:27:15;0.33;0.33;0.33
66195;PMS7003;53000;45.182;5.736;2023-09-19T15:29:41;1.00;1.00;1.00
66195;PMS7003;53000;45.182;5.736;2023-09-19T15:32:07;0.67;0.67;0.33
66195;PMS7003;53000;45.182;5.736;2023-09-19T15:34:32;0.00;0.00;0.00
66195;PMS7003;53000;45.182;5.736;2023-09-19T15:36:58;0.00;0.00;0.00
66195;PMS7003;53000;45.182;5.736;2023-09-19T15:39:23;0.33;0.00;0.00
66195;PMS7003;53000;45.182;5.736;2023-09-19T15:41:49;11.75;9.00;5.50
66195;PMS7003;53000;45.182;5.736;2023-09-19T15:44:17;1.00;1.00;1.00
66195;PMS7003;53000;45.182;5.736;2023-09-19T15:46:44;2.67;2.00;1.00